Time;durP1;ratioP1;P1;durP2;ratioP2;P2;SDS_P1;SDS_P2;PMS_P1;PMS_P2;Temp;Humidity;BMP_temperature;BMP_pressure;BME280_temperature;BME280_humidity;BME280_pressure;Samples;Min_cycle;Max_cycle;Signal;HPM_P1;HPM_P2
2024/01/09 00:00:32;;;;;;;5.57;2.60;;;-5.70;99.90;;;;;;5080646;28;20507;-81
2024/01/09 00:02:59;;;;;;;5.20;2.70;;;-5.70;99.90;;;;;;5089077;28;21636;-81
2024/01/09 00:05:26;;;;;;;6.00;2.67;;;-5.80;99.90;;;;;;5068086;27;20693;-84
2024/01/09 00:07:52;;;;;;;5.43;2.80;;;-5.80;99.90;;;;;;5091306;28;20245;-80
2024/01/09 00:10:19;;;;;;;4.40;3.07;;;-5.80;99.90;;;;;;5074712;28;20223;-81
2024/01/09 00:12:46;;;;;;;5.50;2.73;;;-5.80;99.90;;;;;;5089888;28;20233;-81
2024/01/09 00:15:14;;;;;;;5.93;2.90;;;-5.80;99.90;;;;;;5079819;28;20224;-81
2024/01/09 00:17:43;;;;;;;4.90;2.93;;;-5.90;99.90;;;;;;5077732;28;20225;-82
2024/01/09 00:20:11;;;;;;;5.97;2.90;;;-6.00;99.90;;;;;;5101472;27;20218;-81
2024/01/09 00:22:38;;;;;;;3.70;2.60;;;-6.00;99.90;;;;;;5080446;28;20267;-81
2024/01/09 00:25:07;;;;;;;4.43;3.07;;;-6.00;99.90;;;;;;5085570;28;20321;-82
2024/01/09 00:27:34;;;;;;;5.37;2.57;;;-6.10;99.90;;;;;;5076983;28;20310;-81
2024/01/09 00:30:01;;;;;;;5.37;2.73;;;-6.10;99.90;;;;;;5091216;28;20272;-80
2024/01/09 00:32:28;;;;;;;5.20;2.90;;;-6.10;99.90;;;;;;5075588;28;20246;-80
2024/01/09 00:34:56;;;;;;;5.67;2.93;;;-6.20;99.90;;;;;;5074090;28;20222;-80
2024/01/09 00:37:23;;;;;;;4.90;3.30;;;-6.20;99.90;;;;;;5071160;28;20219;-80
2024/01/09 00:39:51;;;;;;;8.87;3.27;;;-6.20;99.90;;;;;;5076589;28;20228;-80
2024/01/09 00:42:18;;;;;;;4.33;3.03;;;-6.30;99.90;;;;;;5123994;27;20223;-80
2024/01/09 00:44:45;;;;;;;5.57;2.87;;;-6.30;99.90;;;;;;5087852;28;20225;-79
2024/01/09 00:47:12;;;;;;;4.20;2.57;;;-6.30;99.90;;;;;;5076856;28;20232;-79
2024/01/09 00:49:39;;;;;;;8.83;2.83;;;-6.30;99.90;;;;;;5084694;28;20591;-81
2024/01/09 00:52:07;;;;;;;5.00;3.33;;;-6.30;99.90;;;;;;5086144;27;20313;-79
2024/01/09 00:54:34;;;;;;;6.83;2.60;;;-6.30;99.90;;;;;;5095358;28;20233;-80
2024/01/09 00:57:00;;;;;;;6.90;3.00;;;-6.30;99.90;;;;;;5082554;28;20698;-79
2024/01/09 00:59:27;;;;;;;4.77;3.00;;;-6.30;99.90;;;;;;5086483;28;20940;-79
2024/01/09 01:01:54;;;;;;;5.13;2.90;;;-6.30;99.90;;;;;;5095903;27;20221;-80
2024/01/09 01:04:21;;;;;;;4.50;2.80;;;-6.30;99.90;;;;;;5081601;28;20340;-80
2024/01/09 01:06:47;;;;;;;4.87;3.13;;;-6.30;99.90;;;;;;5090873;28;20263;-79
2024/01/09 01:09:16;;;;;;;4.47;2.77;;;-6.30;99.90;;;;;;5096625;28;20224;-81
2024/01/09 01:11:43;;;;;;;6.87;3.07;;;-6.30;99.90;;;;;;5078162;28;20946;-80
2024/01/09 01:14:09;;;;;;;3.60;2.47;;;-6.30;99.90;;;;;;5094115;28;20641;-79
2024/01/09 01:16:36;;;;;;;4.33;2.97;;;-6.30;99.90;;;;;;5095762;28;20687;-79
2024/01/09 01:19:03;;;;;;;6.80;3.33;;;-6.30;99.90;;;;;;5079704;28;20218;-81
2024/01/09 01:21:30;;;;;;;13.13;3.87;;;-6.40;99.90;;;;;;5082145;28;20253;-80
2024/01/09 01:23:57;;;;;;;6.03;2.97;;;-6.40;99.90;;;;;;5084650;28;20279;-81
2024/01/09 01:26:25;;;;;;;7.63;3.00;;;-6.40;99.90;;;;;;5084144;28;20234;-79
2024/01/09 01:28:52;;;;;;;5.20;2.90;;;-6.40;99.90;;;;;;5085150;28;20213;-80
2024/01/09 01:31:18;;;;;;;7.10;4.17;;;-6.40;99.90;;;;;;5078553;28;20226;-80
2024/01/09 01:33:46;;;;;;;8.00;3.23;;;-6.40;99.90;;;;;;5118313;27;20222;-80
2024/01/09 01:36:16;;;;;;;4.70;2.80;;;-6.40;99.90;;;;;;5104468;27;20269;-80
2024/01/09 01:38:44;;;;;;;72.50;7.97;;;-6.40;99.90;;;;;;5099350;28;20229;-79
2024/01/09 01:41:11;;;;;;;6.63;3.47;;;-6.50;99.90;;;;;;5082358;28;20800;-80
2024/01/09 01:43:39;;;;;;;7.87;3.40;;;-6.50;99.90;;;;;;5085230;28;20227;-80
2024/01/09 01:46:06;;;;;;;6.23;2.90;;;-6.50;99.90;;;;;;5081626;28;20803;-79
2024/01/09 01:48:34;;;;;;;7.00;3.20;;;-6.50;99.90;;;;;;5074426;28;20218;-79
2024/01/09 01:51:03;;;;;;;4.87;3.17;;;-6.50;99.90;;;;;;5082921;27;20227;-78
2024/01/09 01:53:32;;;;;;;5.60;3.23;;;-6.50;99.90;;;;;;5092750;28;20231;-81
2024/01/09 01:55:58;;;;;;;5.70;3.17;;;-6.50;99.90;;;;;;5083537;27;20235;-80
2024/01/09 01:58:27;;;;;;;4.93;2.90;;;-6.60;99.90;;;;;;5080768;27;20577;-80
2024/01/09 02:00:55;;;;;;;6.37;3.80;;;-6.60;99.90;;;;;;5085469;28;20231;-80
2024/01/09 02:03:22;;;;;;;6.70;3.30;;;-6.60;99.90;;;;;;5081295;28;20683;-80
2024/01/09 02:05:50;;;;;;;3.67;2.80;;;-6.60;99.90;;;;;;5075910;28;20219;-78
2024/01/09 02:08:19;;;;;;;5.17;3.40;;;-6.70;99.90;;;;;;5092006;27;20242;-78
2024/01/09 02:10:46;;;;;;;5.43;2.87;;;-6.70;99.90;;;;;;5086445;28;20234;-80
2024/01/09 02:13:13;;;;;;;5.30;3.00;;;-6.80;99.90;;;;;;5080638;27;20234;-79
2024/01/09 02:15:40;;;;;;;6.80;3.17;;;-6.80;99.90;;;;;;5086986;27;20246;-78
2024/01/09 02:18:09;;;;;;;5.40;2.80;;;-6.90;99.90;;;;;;5105367;27;20276;-80
2024/01/09 02:20:36;;;;;;;5.43;3.40;;;-6.90;99.90;;;;;;5081416;28;20236;-80
2024/01/09 02:23:04;;;;;;;5.83;3.33;;;-7.00;99.90;;;;;;5084106;27;20276;-81
2024/01/09 02:25:31;;;;;;;4.87;2.97;;;-7.00;99.90;;;;;;5083926;28;20750;-79
2024/01/09 02:28:04;;;;;;;6.27;4.13;;;-7.00;99.90;;;;;;5086084;28;20328;-80
2024/01/09 02:30:32;;;;;;;5.50;3.00;;;-7.00;99.90;;;;;;5073705;27;20258;-79
2024/01/09 02:33:00;;;;;;;5.33;3.13;;;-7.10;99.90;;;;;;5074443;28;20228;-80
2024/01/09 02:35:27;;;;;;;5.73;3.10;;;-7.10;99.90;;;;;;5086296;28;20861;-80
2024/01/09 02:37:54;;;;;;;6.40;3.23;;;-7.10;99.90;;;;;;5094804;28;20214;-80
2024/01/09 02:40:22;;;;;;;8.07;3.43;;;-7.10;99.90;;;;;;5077943;28;20777;-80
2024/01/09 02:42:49;;;;;;;5.97;3.70;;;-7.10;99.90;;;;;;5079323;28;20265;-81
2024/01/09 02:45:16;;;;;;;6.33;3.13;;;-7.10;99.90;;;;;;5082669;27;20230;-80
2024/01/09 02:47:45;;;;;;;6.67;3.30;;;-7.20;99.90;;;;;;5086652;27;20250;-81
2024/01/09 02:50:12;;;;;;;9.67;3.33;;;-7.20;99.90;;;;;;5087325;28;20229;-81
2024/01/09 02:52:39;;;;;;;5.40;3.60;;;-7.20;99.90;;;;;;5087254;27;20326;-80
2024/01/09 02:55:07;;;;;;;4.63;3.13;;;-7.30;99.90;;;;;;5112001;27;20278;-81
2024/01/09 02:57:33;;;;;;;5.13;3.23;;;-7.40;99.90;;;;;;5073370;28;20230;-80
2024/01/09 03:00:00;;;;;;;5.20;3.20;;;-7.40;99.90;;;;;;5117799;27;20322;-81
2024/01/09 03:02:27;;;;;;;5.07;2.83;;;-7.40;99.90;;;;;;5092607;27;20244;-79
2024/01/09 03:04:55;;;;;;;4.87;3.03;;;-7.50;99.90;;;;;;5073350;28;20223;-80
2024/01/09 03:07:22;;;;;;;6.43;3.20;;;-7.50;99.90;;;;;;5115342;27;20275;-79
2024/01/09 03:09:49;;;;;;;7.03;3.23;;;-7.50;99.90;;;;;;5083593;28;20245;-79
2024/01/09 03:12:16;;;;;;;5.17;3.10;;;-7.60;99.90;;;;;;5084133;28;20285;-80
2024/01/09 03:14:42;;;;;;;7.17;3.30;;;-7.60;99.90;;;;;;5084347;28;20284;-80
2024/01/09 03:17:09;;;;;;;6.87;3.07;;;-7.60;99.90;;;;;;5093408;27;20223;-78
2024/01/09 03:19:36;;;;;;;5.17;3.80;;;-7.60;99.90;;;;;;5111560;27;20265;-78
2024/01/09 03:22:04;;;;;;;5.13;3.30;;;-7.60;99.90;;;;;;5092200;28;20235;-79
2024/01/09 03:24:31;;;;;;;6.17;3.10;;;-7.60;99.90;;;;;;5094054;28;20223;-79
2024/01/09 03:26:58;;;;;;;3.93;2.40;;;-7.60;99.90;;;;;;5081775;28;20219;-77
2024/01/09 03:29:26;;;;;;;6.23;3.30;;;-7.60;99.90;;;;;;5084783;28;20709;-78
2024/01/09 03:31:52;;;;;;;6.77;3.67;;;-7.70;99.90;;;;;;5092581;28;20308;-79
2024/01/09 03:34:19;;;;;;;5.03;3.10;;;-7.70;99.90;;;;;;5093501;27;20238;-79
2024/01/09 03:36:47;;;;;;;6.80;2.83;;;-7.70;99.90;;;;;;5122061;27;20235;-78
2024/01/09 03:39:15;;;;;;;5.37;3.50;;;-7.70;99.90;;;;;;5078080;27;20219;-80
2024/01/09 03:41:43;;;;;;;4.00;2.90;;;-7.70;99.90;;;;;;5078179;27;20227;-79
2024/01/09 03:44:10;;;;;;;5.73;3.10;;;-7.70;99.90;;;;;;5091434;27;20244;-79
2024/01/09 03:46:37;;;;;;;4.50;3.10;;;-7.70;99.90;;;;;;5082540;27;20230;-78
2024/01/09 03:49:04;;;;;;;6.47;3.03;;;-7.70;99.90;;;;;;5090891;28;20346;-79
2024/01/09 03:51:31;;;;;;;5.37;3.60;;;-7.70;99.90;;;;;;5091835;28;20311;-80
2024/01/09 03:53:58;;;;;;;5.07;3.37;;;-7.80;99.90;;;;;;5078178;27;20215;-79
2024/01/09 03:56:27;;;;;;;4.80;3.00;;;-7.80;99.90;;;;;;5074907;27;20239;-80
2024/01/09 03:58:54;;;;;;;5.83;3.03;;;-7.80;99.90;;;;;;5074928;28;20218;-80
2024/01/09 04:01:21;;;;;;;5.60;3.17;;;-7.90;99.90;;;;;;5076783;28;20286;-81
2024/01/09 04:03:48;;;;;;;7.63;3.60;;;-8.00;99.90;;;;;;5079187;28;20238;-80
2024/01/09 04:06:15;;;;;;;6.03;3.50;;;-8.00;99.90;;;;;;5112946;27;20225;-80
2024/01/09 04:08:41;;;;;;;5.83;3.20;;;-8.00;99.90;;;;;;5099104;28;20229;-78
2024/01/09 04:11:08;;;;;;;4.77;3.07;;;-8.00;99.90;;;;;;5094949;28;20230;-79
2024/01/09 04:13:40;;;;;;;5.67;3.03;;;-8.10;99.90;;;;;;5077034;28;20223;-81
2024/01/09 04:16:11;;;;;;;6.43;3.03;;;-8.10;99.90;;;;;;5104788;27;20340;-80
2024/01/09 04:18:38;;;;;;;5.03;3.17;;;-8.10;99.90;;;;;;5087170;28;20310;-80
2024/01/09 04:21:05;;;;;;;5.63;3.60;;;-8.10;99.90;;;;;;5079512;28;20221;-80
2024/01/09 04:23:33;;;;;;;4.83;3.33;;;-8.10;99.90;;;;;;5081721;28;20313;-80
2024/01/09 04:25:59;;;;;;;7.17;3.40;;;-8.20;99.90;;;;;;5083939;28;20226;-79
2024/01/09 04:28:27;;;;;;;6.20;3.30;;;-8.20;99.90;;;;;;5095252;27;20226;-79
2024/01/09 04:30:56;;;;;;;6.57;3.70;;;-8.30;99.90;;;;;;5086880;28;20963;-80
2024/01/09 04:33:24;;;;;;;5.07;3.27;;;-8.30;99.90;;;;;;5080043;27;20327;-81
2024/01/09 04:35:50;;;;;;;9.60;3.63;;;-8.30;99.90;;;;;;5083856;28;20226;-81
2024/01/09 04:38:17;;;;;;;5.67;3.50;;;-8.30;99.90;;;;;;5083773;28;20213;-80
2024/01/09 04:40:43;;;;;;;9.33;3.57;;;-8.30;99.90;;;;;;5082246;28;20237;-80
2024/01/09 04:43:10;;;;;;;6.73;3.77;;;-8.40;99.90;;;;;;5112714;27;20274;-80
2024/01/09 04:45:37;;;;;;;5.27;3.20;;;-8.40;99.90;;;;;;5071670;28;20229;-79
2024/01/09 04:48:06;;;;;;;6.57;3.37;;;-8.40;99.90;;;;;;5081949;28;20218;-79
2024/01/09 04:50:33;;;;;;;6.13;3.47;;;-8.50;99.90;;;;;;5081816;28;20668;-79
2024/01/09 04:53:00;;;;;;;7.93;3.33;;;-8.50;99.90;;;;;;5085021;28;20294;-79
2024/01/09 04:55:27;;;;;;;6.23;3.27;;;-8.60;99.90;;;;;;5081409;27;20236;-79
2024/01/09 04:57:54;;;;;;;3.83;3.17;;;-8.60;99.90;;;;;;5078771;28;20882;-78
2024/01/09 05:00:22;;;;;;;5.07;3.23;;;-8.60;99.90;;;;;;5087368;27;20282;-78
2024/01/09 05:02:49;;;;;;;7.27;4.30;;;-8.60;99.90;;;;;;5085370;28;20275;-79
2024/01/09 05:05:17;;;;;;;6.60;3.30;;;-8.60;99.90;;;;;;5090466;27;20226;-78
2024/01/09 05:07:44;;;;;;;9.97;6.20;;;-8.60;99.90;;;;;;5092977;27;20262;-80
2024/01/09 05:10:10;;;;;;;17.17;10.40;;;-8.60;99.90;;;;;;5082840;27;20230;-79
2024/01/09 05:12:37;;;;;;;13.67;8.87;;;-8.60;99.90;;;;;;5079121;28;20218;-80
2024/01/09 05:15:05;;;;;;;10.40;7.50;;;-8.70;99.90;;;;;;5088946;27;20247;-78
2024/01/09 05:17:31;;;;;;;6.63;4.60;;;-8.70;99.90;;;;;;5095568;27;20640;-79
2024/01/09 05:19:58;;;;;;;6.83;3.90;;;-8.70;99.90;;;;;;5103525;28;20748;-78
2024/01/09 05:22:27;;;;;;;7.80;4.77;;;-8.70;99.90;;;;;;5094319;27;20262;-79
2024/01/09 05:24:53;;;;;;;9.77;4.70;;;-8.70;99.90;;;;;;5079660;28;20225;-79
2024/01/09 05:27:21;;;;;;;7.10;4.50;;;-8.80;99.90;;;;;;5081668;28;20310;-83
2024/01/09 05:29:47;;;;;;;8.07;4.43;;;-8.70;99.90;;;;;;5099170;28;20248;-79
2024/01/09 05:32:14;;;;;;;8.33;4.60;;;-8.80;99.90;;;;;;5097148;27;20232;-82
2024/01/09 05:34:41;;;;;;;10.20;4.33;;;-8.80;99.90;;;;;;5099305;27;20242;-81
2024/01/09 05:37:07;;;;;;;7.43;4.50;;;-8.80;99.90;;;;;;5078148;27;20342;-80
2024/01/09 05:39:35;;;;;;;9.53;5.10;;;-8.80;99.90;;;;;;5111588;27;20253;-82
2024/01/09 05:42:03;;;;;;;10.27;5.43;;;-8.80;99.90;;;;;;5128857;27;20226;-79
2024/01/09 05:44:29;;;;;;;8.73;5.10;;;-8.80;99.90;;;;;;5100376;27;20228;-81
2024/01/09 05:46:56;;;;;;;7.97;4.70;;;-8.80;99.90;;;;;;5082345;28;20218;-82
2024/01/09 05:49:23;;;;;;;8.30;5.13;;;-8.80;99.90;;;;;;5085931;28;20309;-82
2024/01/09 05:51:50;;;;;;;7.37;5.00;;;-8.80;99.90;;;;;;5078991;28;20253;-80
2024/01/09 05:54:17;;;;;;;8.60;5.30;;;-8.80;99.90;;;;;;5068606;27;20992;-81
2024/01/09 05:56:45;;;;;;;8.03;4.87;;;-8.70;99.90;;;;;;5088927;28;20217;-82
2024/01/09 05:59:11;;;;;;;8.87;5.00;;;-8.70;99.90;;;;;;5077773;28;20317;-82
2024/01/09 06:01:37;;;;;;;6.60;4.80;;;-8.70;99.90;;;;;;5073576;28;20226;-82
2024/01/09 06:04:04;;;;;;;8.63;4.47;;;-8.70;99.90;;;;;;5081633;28;20286;-80
2024/01/09 06:06:32;;;;;;;7.47;4.20;;;-8.70;99.90;;;;;;5088218;28;20290;-81
2024/01/09 06:08:59;;;;;;;7.63;4.43;;;-8.70;99.90;;;;;;5103020;27;20249;-80
2024/01/09 06:11:26;;;;;;;8.30;4.27;;;-8.70;99.90;;;;;;5097274;28;20238;-81
2024/01/09 06:13:55;;;;;;;10.37;4.47;;;-8.70;99.90;;;;;;5081333;28;20221;-81
2024/01/09 06:16:22;;;;;;;10.33;5.13;;;-8.70;99.90;;;;;;5099704;28;20229;-83
2024/01/09 06:18:49;;;;;;;8.73;5.10;;;-8.60;99.90;;;;;;5106353;27;20271;-80
2024/01/09 06:21:16;;;;;;;11.13;5.63;;;-8.60;99.90;;;;;;5083108;28;20284;-81
2024/01/09 06:23:42;;;;;;;9.17;5.60;;;-8.60;99.90;;;;;;5086371;28;20211;-82
2024/01/09 06:26:10;;;;;;;8.43;5.30;;;-8.60;99.90;;;;;;5087874;27;20822;-82
2024/01/09 06:28:37;;;;;;;12.60;5.63;;;-8.50;99.90;;;;;;5083670;28;20236;-80
2024/01/09 06:31:05;;;;;;;8.23;5.27;;;-8.50;99.90;;;;;;5100734;27;20243;-82
2024/01/09 06:33:32;;;;;;;8.73;5.03;;;-8.40;99.90;;;;;;5078531;28;20903;-80
2024/01/09 06:36:00;;;;;;;10.13;5.13;;;-8.40;99.90;;;;;;5084418;28;20265;-80
2024/01/09 06:38:27;;;;;;;8.07;4.83;;;-8.40;99.90;;;;;;5088434;27;20245;-81
2024/01/09 06:40:54;;;;;;;8.57;5.07;;;-8.30;99.90;;;;;;5090553;27;20233;-81
2024/01/09 06:43:20;;;;;;;8.23;5.43;;;-8.30;99.90;;;;;;5085595;28;20774;-81
2024/01/09 06:45:47;;;;;;;9.33;5.07;;;-8.30;99.90;;;;;;5099689;28;20290;-79
2024/01/09 06:48:16;;;;;;;9.60;4.60;;;-8.30;99.90;;;;;;5092258;28;20219;-80
2024/01/09 06:50:43;;;;;;;8.47;4.57;;;-8.20;99.90;;;;;;5100638;27;20232;-79
2024/01/09 06:53:10;;;;;;;10.50;5.83;;;-8.20;99.90;;;;;;5105399;27;20283;-78
2024/01/09 06:55:37;;;;;;;10.13;5.53;;;-8.20;99.90;;;;;;5091233;28;20226;-78
2024/01/09 06:58:04;;;;;;;8.93;5.50;;;-8.20;99.90;;;;;;5086112;28;20352;-79
2024/01/09 07:00:30;;;;;;;7.63;5.10;;;-8.20;99.90;;;;;;5078465;28;20885;-80
2024/01/09 07:02:57;;;;;;;10.97;4.63;;;-8.10;99.90;;;;;;5054311;27;20219;-79
2024/01/09 07:05:25;;;;;;;9.90;5.80;;;-8.10;99.90;;;;;;5086076;28;20248;-79
2024/01/09 07:07:51;;;;;;;8.47;5.40;;;-8.10;99.90;;;;;;5082026;28;20259;-79
2024/01/09 07:10:19;;;;;;;10.47;5.17;;;-8.10;99.90;;;;;;5099416;28;20229;-79
2024/01/09 07:12:45;;;;;;;9.17;5.67;;;-8.10;99.90;;;;;;5088264;28;20234;-79
2024/01/09 07:15:14;;;;;;;11.37;5.70;;;-8.10;99.90;;;;;;5083817;27;20249;-80
2024/01/09 07:17:42;;;;;;;11.03;5.97;;;-8.10;99.90;;;;;;5089043;28;20303;-79
2024/01/09 07:20:09;;;;;;;8.83;5.87;;;-8.10;99.90;;;;;;5078308;28;20245;-80
2024/01/09 07:22:38;;;;;;;8.60;5.20;;;-8.00;99.90;;;;;;5093622;28;20316;-79
2024/01/09 07:25:05;;;;;;;10.03;5.70;;;-8.00;99.90;;;;;;5084563;28;20313;-80
2024/01/09 07:27:32;;;;;;;8.83;6.10;;;-8.00;99.90;;;;;;5087205;27;20242;-80
2024/01/09 07:30:00;;;;;;;15.43;6.03;;;-8.00;99.90;;;;;;5097663;27;20245;-80
2024/01/09 07:32:27;;;;;;;9.50;6.23;;;-8.00;99.90;;;;;;5079740;28;20317;-80
2024/01/09 07:34:53;;;;;;;9.63;5.90;;;-8.00;99.90;;;;;;5114783;27;20261;-80
2024/01/09 07:37:20;;;;;;;9.37;5.73;;;-8.00;99.90;;;;;;5075072;28;20229;-80
2024/01/09 07:39:48;;;;;;;11.17;6.53;;;-8.00;99.90;;;;;;5109303;27;20225;-80
2024/01/09 07:42:15;;;;;;;9.60;5.67;;;-8.00;99.90;;;;;;5079467;28;20799;-79
2024/01/09 07:44:42;;;;;;;9.97;6.03;;;-8.00;99.90;;;;;;5101373;28;20249;-80
2024/01/09 07:47:11;;;;;;;8.37;5.93;;;-8.00;99.90;;;;;;5089493;27;20721;-80
2024/01/09 07:49:38;;;;;;;11.80;7.33;;;-8.00;99.90;;;;;;5095014;28;20229;-79
2024/01/09 07:52:05;;;;;;;13.63;6.27;;;-8.00;99.90;;;;;;5091237;28;20917;-80
2024/01/09 07:54:32;;;;;;;9.37;5.47;;;-8.00;99.90;;;;;;5092236;28;20257;-80
2024/01/09 07:57:01;;;;;;;8.83;5.83;;;-8.00;99.90;;;;;;5086307;28;20218;-79
2024/01/09 07:59:28;;;;;;;9.33;5.90;;;-8.00;99.90;;;;;;5071394;28;20240;-80
2024/01/09 08:01:55;;;;;;;13.97;6.60;;;-8.00;99.90;;;;;;5090468;28;20228;-79
2024/01/09 08:04:22;;;;;;;11.03;7.07;;;-8.10;99.90;;;;;;5091418;28;20226;-80
2024/01/09 08:06:50;;;;;;;11.27;5.97;;;-8.10;99.90;;;;;;5090154;28;20219;-79
2024/01/09 08:09:17;;;;;;;10.33;6.03;;;-8.10;99.90;;;;;;5072053;28;20332;-78
2024/01/09 08:11:44;;;;;;;9.93;6.20;;;-8.10;99.90;;;;;;5082264;28;20252;-80
2024/01/09 08:14:13;;;;;;;12.63;5.80;;;-8.10;99.90;;;;;;5090960;27;20653;-79
2024/01/09 08:16:41;;;;;;;10.63;6.27;;;-8.10;99.90;;;;;;5101688;27;20210;-79
2024/01/09 08:19:07;;;;;;;9.83;6.40;;;-8.10;99.90;;;;;;5102984;28;20225;-79
2024/01/09 08:21:35;;;;;;;9.10;5.87;;;-8.00;99.90;;;;;;5098646;28;20222;-79
2024/01/09 08:24:02;;;;;;;11.00;6.00;;;-8.00;99.90;;;;;;5087291;28;20934;-79
2024/01/09 08:26:29;;;;;;;10.47;6.00;;;-7.90;99.90;;;;;;5074288;28;20894;-79
2024/01/09 08:28:56;;;;;;;10.30;6.20;;;-7.90;99.90;;;;;;5086701;28;20276;-80
2024/01/09 08:31:25;;;;;;;10.17;6.10;;;-7.80;99.90;;;;;;5088387;27;20233;-80
2024/01/09 08:33:51;;;;;;;14.30;6.23;;;-7.70;99.90;;;;;;5108977;27;20319;-80
2024/01/09 08:36:18;;;;;;;8.67;5.57;;;-7.60;99.90;;;;;;5100388;27;20227;-80
2024/01/09 08:38:47;;;;;;;11.67;5.83;;;-7.50;99.90;;;;;;5091715;28;20752;-80
2024/01/09 08:41:17;;;;;;;10.23;6.30;;;-7.40;99.90;;;;;;5085485;27;20252;-79
2024/01/09 08:43:44;;;;;;;10.57;6.67;;;-7.30;99.90;;;;;;5091032;27;20286;-80
2024/01/09 08:46:12;;;;;;;10.53;6.50;;;-7.20;99.90;;;;;;5103276;27;20253;-80
2024/01/09 08:48:40;;;;;;;11.70;6.97;;;-7.10;99.90;;;;;;5082664;28;20214;-80
2024/01/09 08:51:07;;;;;;;11.23;6.80;;;-7.00;99.90;;;;;;5080239;28;20294;-79
2024/01/09 08:53:35;;;;;;;12.57;6.67;;;-7.00;99.90;;;;;;5084190;27;20312;-80
2024/01/09 08:56:02;;;;;;;9.63;6.37;;;-6.80;99.90;;;;;;5085989;28;20253;-80
2024/01/09 08:58:29;;;;;;;13.33;6.50;;;-6.70;99.90;;;;;;5085449;28;20717;-80
2024/01/09 09:00:56;;;;;;;10.63;6.13;;;-6.70;99.90;;;;;;5079552;28;20813;-80
2024/01/09 09:03:23;;;;;;;8.20;6.20;;;-6.60;99.90;;;;;;5090250;28;20307;-80
2024/01/09 09:05:51;;;;;;;13.57;6.47;;;-6.50;99.90;;;;;;5087295;27;20300;-80
2024/01/09 09:08:20;;;;;;;9.30;6.13;;;-6.40;99.90;;;;;;5076840;28;20238;-80
2024/01/09 09:10:47;;;;;;;14.20;6.83;;;-6.40;99.90;;;;;;5082654;27;20219;-80
2024/01/09 09:13:14;;;;;;;9.57;6.27;;;-6.30;99.90;;;;;;5082904;28;20287;-80
2024/01/09 09:15:42;;;;;;;10.80;6.30;;;-6.20;99.90;;;;;;5097395;27;20246;-80
2024/01/09 09:18:10;;;;;;;12.27;6.70;;;-6.10;99.90;;;;;;5086215;27;20239;-80
2024/01/09 09:20:37;;;;;;;14.70;8.63;;;-6.00;99.90;;;;;;5102480;28;20733;-80
2024/01/09 09:23:06;;;;;;;18.77;9.67;;;-6.00;99.90;;;;;;5088096;28;20340;-79
2024/01/09 09:25:32;;;;;;;11.63;7.53;;;-6.00;99.90;;;;;;5112563;27;20259;-80
2024/01/09 09:27:59;;;;;;;14.43;7.33;;;-5.90;99.90;;;;;;5094867;27;20229;-80
2024/01/09 09:30:26;;;;;;;14.87;8.60;;;-5.90;99.90;;;;;;5085447;27;20761;-80
2024/01/09 09:32:54;;;;;;;11.67;6.93;;;-5.80;99.90;;;;;;5100466;27;20239;-79
2024/01/09 09:35:21;;;;;;;12.23;6.63;;;-5.70;99.90;;;;;;5100700;28;20285;-80
2024/01/09 09:37:48;;;;;;;12.13;6.57;;;-5.60;99.90;;;;;;5094424;28;20215;-80
2024/01/09 09:40:17;;;;;;;10.03;6.17;;;-5.60;99.90;;;;;;5083752;28;20297;-80
2024/01/09 09:42:47;;;;;;;11.30;6.30;;;-5.50;99.90;;;;;;5088956;27;20719;-79
2024/01/09 09:45:18;;;;;;;8.33;5.67;;;-5.40;99.90;;;;;;5092724;28;20300;-80
2024/01/09 09:47:46;;;;;;;11.10;6.20;;;-5.30;99.90;;;;;;5090562;27;20248;-81
2024/01/09 09:50:14;;;;;;;14.47;6.33;;;-5.20;99.90;;;;;;5098479;27;20223;-79
2024/01/09 09:52:43;;;;;;;10.10;6.17;;;-5.10;99.90;;;;;;5071753;28;20232;-80
2024/01/09 09:55:10;;;;;;;8.40;5.90;;;-5.10;99.90;;;;;;5079256;28;20237;-80
2024/01/09 09:57:39;;;;;;;17.93;10.73;;;-4.90;99.90;;;;;;5072335;28;20272;-80
2024/01/09 10:00:08;;;;;;;10.20;6.40;;;-4.90;99.90;;;;;;5082047;27;20228;-80
2024/01/09 10:02:38;;;;;;;8.60;6.10;;;-4.90;99.90;;;;;;5084474;28;20229;-79
2024/01/09 10:05:10;;;;;;;10.07;6.40;;;-4.80;99.90;;;;;;5081084;28;20260;-80
2024/01/09 10:07:39;;;;;;;12.37;6.10;;;-4.80;99.90;;;;;;5080649;28;20224;-79
2024/01/09 10:10:08;;;;;;;8.40;5.80;;;-4.70;99.90;;;;;;5075596;28;20640;-80
2024/01/09 10:12:36;;;;;;;7.37;5.23;;;-4.70;99.90;;;;;;5090388;28;20223;-80
2024/01/09 10:15:07;;;;;;;7.23;5.27;;;-4.60;99.90;;;;;;5098868;28;20254;-80
2024/01/09 10:17:34;;;;;;;7.87;5.53;;;-4.60;99.90;;;;;;5099915;28;20308;-80
2024/01/09 10:20:01;;;;;;;8.53;5.20;;;-4.50;99.90;;;;;;5086606;28;20311;-80
2024/01/09 10:22:31;;;;;;;8.43;5.53;;;-4.40;99.90;;;;;;5085559;27;20227;-80
2024/01/09 10:24:58;;;;;;;8.03;5.20;;;-4.40;99.90;;;;;;5083990;28;20225;-80
2024/01/09 10:27:26;;;;;;;7.40;5.40;;;-4.30;99.90;;;;;;5089766;28;20306;-79
2024/01/09 10:29:53;;;;;;;8.50;6.50;;;-4.30;99.90;;;;;;5087068;28;20248;-79
2024/01/09 10:32:21;;;;;;;8.07;5.83;;;-4.30;99.90;;;;;;5079259;28;20796;-79
2024/01/09 10:34:48;;;;;;;7.37;5.90;;;-4.20;99.90;;;;;;5087617;28;20254;-80
2024/01/09 10:37:15;;;;;;;8.73;4.93;;;-4.20;99.90;;;;;;5078370;28;20279;-79
2024/01/09 10:39:42;;;;;;;7.40;4.97;;;-4.10;99.90;;;;;;5082012;27;20705;-81
2024/01/09 10:42:10;;;;;;;9.77;5.77;;;-4.10;99.90;;;;;;5081440;28;20320;-80
2024/01/09 10:44:40;;;;;;;8.93;5.37;;;-4.00;99.90;;;;;;5086941;28;20288;-81
2024/01/09 10:47:09;;;;;;;7.73;4.90;;;-4.00;99.90;;;;;;5089548;28;20221;-80
2024/01/09 10:49:40;;;;;;;7.60;5.07;;;-3.90;99.90;;;;;;5083745;27;20225;-80
2024/01/09 10:52:11;;;;;;;8.07;5.00;;;-3.90;99.90;;;;;;5083338;27;20256;-81
2024/01/09 10:54:40;;;;;;;7.40;5.13;;;-3.80;99.90;;;;;;5098243;28;20216;-81
2024/01/09 10:57:10;;;;;;;8.73;5.50;;;-3.70;99.90;;;;;;5096047;28;20308;-81
2024/01/09 10:59:40;;;;;;;10.63;6.93;;;-3.70;99.90;;;;;;5122954;27;20246;-80
2024/01/09 11:02:12;;;;;;;6.87;4.70;;;-3.60;99.90;;;;;;5103679;27;20230;-81
2024/01/09 11:04:41;;;;;;;8.80;5.40;;;-3.60;99.90;;;;;;5082902;28;20225;-81
2024/01/09 11:07:14;;;;;;;6.93;5.07;;;-3.50;99.90;;;;;;5083245;27;20298;-80
2024/01/09 11:09:42;;;;;;;9.93;5.77;;;-3.50;99.90;;;;;;5081551;28;20266;-81
2024/01/09 11:12:13;;;;;;;8.40;4.63;;;-3.50;99.90;;;;;;5086152;28;20233;-81
2024/01/09 11:14:42;;;;;;;8.23;4.63;;;-3.40;99.90;;;;;;5099099;28;20231;-80
2024/01/09 11:17:11;;;;;;;7.23;4.30;;;-3.40;99.90;;;;;;5097064;28;20245;-80
2024/01/09 11:19:40;;;;;;;7.20;4.30;;;-3.40;99.90;;;;;;5090298;28;20251;-81
2024/01/09 11:22:17;;;;;;;7.20;4.50;;;-3.30;99.90;;;;;;5100989;27;20227;-80
2024/01/09 11:24:47;;;;;;;6.73;3.90;;;-3.30;99.90;;;;;;5110286;27;20283;-80
2024/01/09 11:27:14;;;;;;;7.33;4.13;;;-3.30;99.90;;;;;;5085647;28;20893;-81
2024/01/09 11:29:49;;;;;;;5.27;3.63;;;-3.20;99.90;;;;;;5079245;28;20226;-81
2024/01/09 11:32:17;;;;;;;6.10;4.10;;;-3.20;99.90;;;;;;5084505;28;20226;-81
2024/01/09 11:34:46;;;;;;;7.30;3.83;;;-3.20;99.90;;;;;;5083631;27;20232;-80
2024/01/09 11:37:14;;;;;;;6.20;4.23;;;-3.10;99.90;;;;;;5085096;28;20250;-80
2024/01/09 11:39:41;;;;;;;6.23;3.80;;;-3.10;99.90;;;;;;5134633;27;20241;-80
2024/01/09 11:42:08;;;;;;;7.50;3.70;;;-3.00;99.90;;;;;;5103713;28;20260;-80
2024/01/09 11:44:35;;;;;;;5.87;3.70;;;-3.00;99.90;;;;;;5095489;28;20301;-81
2024/01/09 11:47:02;;;;;;;6.63;3.93;;;-2.90;99.90;;;;;;5086759;28;20253;-81
2024/01/09 11:49:28;;;;;;;5.73;3.63;;;-2.80;99.90;;;;;;5088472;28;20858;-81
2024/01/09 11:51:57;;;;;;;5.57;3.40;;;-2.80;99.90;;;;;;5084696;28;20314;-80
2024/01/09 11:54:24;;;;;;;6.57;3.73;;;-2.80;99.90;;;;;;5084219;28;20294;-80
2024/01/09 11:56:51;;;;;;;5.23;3.17;;;-2.70;99.90;;;;;;5079698;28;20313;-80
2024/01/09 11:59:18;;;;;;;5.90;3.67;;;-2.70;99.90;;;;;;5096235;28;20595;-81
2024/01/09 12:01:46;;;;;;;4.67;3.53;;;-2.60;99.90;;;;;;5098819;28;20770;-79
2024/01/09 12:04:13;;;;;;;5.97;3.60;;;-2.60;99.90;;;;;;5081883;28;20321;-79
2024/01/09 12:06:40;;;;;;;4.70;3.60;;;-2.60;99.90;;;;;;5085663;27;20229;-80
2024/01/09 12:09:09;;;;;;;4.80;3.37;;;-2.50;99.90;;;;;;5086200;28;20229;-79
2024/01/09 12:11:37;;;;;;;6.27;3.40;;;-2.40;99.90;;;;;;5087803;28;20870;-79
2024/01/09 12:14:05;;;;;;;4.53;3.13;;;-2.40;99.90;;;;;;5085797;28;20892;-80
2024/01/09 12:16:32;;;;;;;3.43;2.90;;;-2.30;99.90;;;;;;5112829;27;20225;-80
2024/01/09 12:19:00;;;;;;;7.30;3.97;;;-2.30;99.90;;;;;;5077003;28;20218;-80
2024/01/09 12:21:29;;;;;;;7.40;4.30;;;-2.20;99.90;;;;;;5083638;28;20237;-80
2024/01/09 12:23:59;;;;;;;5.80;3.40;;;-2.20;99.90;;;;;;5080428;28;20291;-81
2024/01/09 12:26:28;;;;;;;5.63;3.07;;;-2.10;99.90;;;;;;5078708;27;20712;-81
2024/01/09 12:28:56;;;;;;;5.47;3.33;;;-2.10;99.90;;;;;;5101357;28;20226;-81
2024/01/09 12:31:24;;;;;;;4.23;3.10;;;-2.10;99.90;;;;;;5073607;28;20365;-81
2024/01/09 12:33:51;;;;;;;5.40;4.00;;;-2.00;99.90;;;;;;5092481;28;20313;-81
2024/01/09 12:36:18;;;;;;;5.13;3.30;;;-2.00;99.90;;;;;;5081037;28;20265;-81
2024/01/09 12:38:46;;;;;;;5.50;3.63;;;-2.00;99.90;;;;;;5094919;28;20631;-80
2024/01/09 12:41:13;;;;;;;5.33;3.50;;;-2.00;99.90;;;;;;5077434;28;20244;-79
2024/01/09 12:43:41;;;;;;;9.30;3.80;;;-2.00;99.90;;;;;;5090559;27;20234;-79
2024/01/09 12:46:08;;;;;;;6.67;3.93;;;-2.00;99.90;;;;;;5078908;28;20631;-80